Shelby, Wisconsin
Current Conditions -  °F | °C
As of 5:53 AM on Friday 24 Oct 2014 (Local Time) from KLSE Reporting Station
Haze Haze  
Wind Chill: 51°   Ceiling: 300
Heat Index: 51°   Visibility: 4mi
Dew Point: 50°   Wind: 7mph
Humidity: 96%   Direction: 160°SSE
Pressure: 30"   Gusts: NA
Location:  43.8°N, 91.145°W
Report Text: KLSE 241053Z 16006KT 4SM BR OVC003 11/10 A3000 RMK AO2 SLP162 T01060100
Loading
Personal Weather Stations






























Interactive Weather Map
Tropical Storm Tracking
New forecast layout! Learn more

10-Day Weather Forecast

Advertisements
Track Severe Weather on mobile